sensor_id;sensor_type;location;lat;lon;timestamp;P1;durP1;ratioP1;P2;durP2;ratioP2
50631;SDS011;49583;45.590;-122.498;2024-03-07T00:00:28;2.00;;;0.80;;
50631;SDS011;49583;45.590;-122.498;2024-03-07T00:03:01;1.00;;;0.60;;
50631;SDS011;49583;45.590;-122.498;2024-03-07T00:05:14;1.20;;;0.70;;
50631;SDS011;49583;45.590;-122.498;2024-03-07T00:07:27;4.60;;;0.70;;
50631;SDS011;49583;45.590;-122.498;2024-03-07T00:09:39;1.60;;;0.70;;
50631;SDS011;49583;45.590;-122.498;2024-03-07T00:11:53;1.90;;;0.90;;
50631;SDS011;49583;45.590;-122.498;2024-03-07T00:14:06;0.90;;;0.60;;
50631;SDS011;49583;45.590;-122.498;2024-03-07T00:16:20;0.60;;;0.50;;
50631;SDS011;49583;45.590;-122.498;2024-03-07T00:18:32;0.90;;;0.70;;
50631;SDS011;49583;45.590;-122.498;2024-03-07T00:20:45;1.10;;;0.60;;
50631;SDS011;49583;45.590;-122.498;2024-03-07T00:22:58;1.30;;;0.80;;
50631;SDS011;49583;45.590;-122.498;2024-03-07T00:25:11;0.60;;;0.60;;
50631;SDS011;49583;45.590;-122.498;2024-03-07T00:27:27;1.10;;;0.70;;
50631;SDS011;49583;45.590;-122.498;2024-03-07T00:29:40;0.50;;;0.50;;
50631;SDS011;49583;45.590;-122.498;2024-03-07T00:32:00;0.90;;;0.70;;
50631;SDS011;49583;45.590;-122.498;2024-03-07T00:34:13;0.90;;;0.70;;
50631;SDS011;49583;45.590;-122.498;2024-03-07T00:36:31;1.80;;;0.70;;
50631;SDS011;49583;45.590;-122.498;2024-03-07T00:38:44;1.80;;;0.70;;
50631;SDS011;49583;45.590;-122.498;2024-03-07T00:40:57;1.10;;;0.80;;
50631;SDS011;49583;45.590;-122.498;2024-03-07T00:43:10;2.30;;;0.70;;
50631;SDS011;49583;45.590;-122.498;2024-03-07T00:45:22;2.20;;;0.70;;
50631;SDS011;49583;45.590;-122.498;2024-03-07T00:47:36;0.80;;;0.60;;
50631;SDS011;49583;45.590;-122.498;2024-03-07T00:49:49;0.90;;;0.60;;
50631;SDS011;49583;45.590;-122.498;2024-03-07T00:52:01;5.80;;;0.80;;
50631;SDS011;49583;45.590;-122.498;2024-03-07T00:54:16;1.40;;;1.00;;
50631;SDS011;49583;45.590;-122.498;2024-03-07T00:56:29;1.00;;;0.80;;
50631;SDS011;49583;45.590;-122.498;2024-03-07T00:58:41;2.40;;;0.70;;
50631;SDS011;49583;45.590;-122.498;2024-03-07T01:00:55;2.40;;;0.60;;
50631;SDS011;49583;45.590;-122.498;2024-03-07T01:03:08;1.30;;;0.70;;
50631;SDS011;49583;45.590;-122.498;2024-03-07T01:05:21;2.30;;;0.90;;
50631;SDS011;49583;45.590;-122.498;2024-03-07T01:07:33;0.70;;;0.70;;
50631;SDS011;49583;45.590;-122.498;2024-03-07T01:09:46;2.00;;;0.70;;
50631;SDS011;49583;45.590;-122.498;2024-03-07T01:11:59;0.70;;;0.70;;
50631;SDS011;49583;45.590;-122.498;2024-03-07T01:14:13;1.00;;;0.60;;
50631;SDS011;49583;45.590;-122.498;2024-03-07T01:16:26;1.10;;;0.60;;
50631;SDS011;49583;45.590;-122.498;2024-03-07T01:18:39;1.60;;;0.70;;
50631;SDS011;49583;45.590;-122.498;2024-03-07T01:20:52;1.70;;;0.60;;
50631;SDS011;49583;45.590;-122.498;2024-03-07T01:23:04;1.30;;;0.70;;
50631;SDS011;49583;45.590;-122.498;2024-03-07T01:25:18;2.50;;;0.80;;
50631;SDS011;49583;45.590;-122.498;2024-03-07T01:27:31;3.90;;;0.80;;
50631;SDS011;49583;45.590;-122.498;2024-03-07T01:29:43;1.00;;;0.80;;
50631;SDS011;49583;45.590;-122.498;2024-03-07T01:31:56;2.10;;;0.60;;
50631;SDS011;49583;45.590;-122.498;2024-03-07T01:34:11;0.80;;;0.80;;
50631;SDS011;49583;45.590;-122.498;2024-03-07T01:36:24;1.50;;;0.70;;
50631;SDS011;49583;45.590;-122.498;2024-03-07T01:38:37;2.80;;;0.90;;
50631;SDS011;49583;45.590;-122.498;2024-03-07T01:40:50;2.60;;;0.80;;
50631;SDS011;49583;45.590;-122.498;2024-03-07T01:43:04;2.80;;;0.80;;
50631;SDS011;49583;45.590;-122.498;2024-03-07T01:45:17;1.00;;;0.70;;
50631;SDS011;49583;45.590;-122.498;2024-03-07T01:47:29;2.50;;;0.70;;
50631;SDS011;49583;45.590;-122.498;2024-03-07T01:49:44;1.10;;;0.80;;
50631;SDS011;49583;45.590;-122.498;2024-03-07T01:51:57;0.70;;;0.70;;
50631;SDS011;49583;45.590;-122.498;2024-03-07T01:54:12;1.20;;;0.80;;
50631;SDS011;49583;45.590;-122.498;2024-03-07T01:56:25;2.00;;;0.70;;
50631;SDS011;49583;45.590;-122.498;2024-03-07T01:58:38;2.00;;;0.90;;
50631;SDS011;49583;45.590;-122.498;2024-03-07T02:00:53;1.10;;;0.80;;
50631;SDS011;49583;45.590;-122.498;2024-03-07T02:03:05;1.90;;;0.90;;
50631;SDS011;49583;45.590;-122.498;2024-03-07T02:05:18;1.80;;;0.90;;
50631;SDS011;49583;45.590;-122.498;2024-03-07T02:07:32;1.20;;;0.70;;
50631;SDS011;49583;45.590;-122.498;2024-03-07T02:09:45;1.00;;;0.90;;
50631;SDS011;49583;45.590;-122.498;2024-03-07T02:11:57;0.80;;;0.60;;
50631;SDS011;49583;45.590;-122.498;2024-03-07T02:14:10;2.20;;;0.70;;
50631;SDS011;49583;45.590;-122.498;2024-03-07T02:16:23;2.80;;;0.90;;
50631;SDS011;49583;45.590;-122.498;2024-03-07T02:18:45;1.90;;;0.80;;
50631;SDS011;49583;45.590;-122.498;2024-03-07T02:20:58;1.60;;;0.80;;
50631;SDS011;49583;45.590;-122.498;2024-03-07T02:23:16;1.40;;;0.70;;
50631;SDS011;49583;45.590;-122.498;2024-03-07T02:25:28;0.50;;;0.50;;
50631;SDS011;49583;45.590;-122.498;2024-03-07T02:27:45;1.20;;;0.80;;
50631;SDS011;49583;45.590;-122.498;2024-03-07T02:29:57;1.20;;;0.60;;
50631;SDS011;49583;45.590;-122.498;2024-03-07T02:32:16;1.90;;;0.80;;
50631;SDS011;49583;45.590;-122.498;2024-03-07T02:34:31;1.10;;;0.80;;
50631;SDS011;49583;45.590;-122.498;2024-03-07T02:36:44;1.70;;;0.70;;
50631;SDS011;49583;45.590;-122.498;2024-03-07T02:38:56;1.30;;;0.80;;
50631;SDS011;49583;45.590;-122.498;2024-03-07T02:41:09;0.90;;;0.80;;
50631;SDS011;49583;45.590;-122.498;2024-03-07T02:43:22;2.90;;;0.80;;
50631;SDS011;49583;45.590;-122.498;2024-03-07T02:45:34;1.40;;;0.80;;
50631;SDS011;49583;45.590;-122.498;2024-03-07T02:47:47;2.20;;;1.00;;
50631;SDS011;49583;45.590;-122.498;2024-03-07T02:50:01;3.40;;;0.90;;
50631;SDS011;49583;45.590;-122.498;2024-03-07T02:52:16;2.00;;;0.90;;
50631;SDS011;49583;45.590;-122.498;2024-03-07T02:54:28;1.60;;;1.00;;
50631;SDS011;49583;45.590;-122.498;2024-03-07T02:56:41;2.60;;;0.80;;
50631;SDS011;49583;45.590;-122.498;2024-03-07T02:58:55;5.50;;;0.90;;
50631;SDS011;49583;45.590;-122.498;2024-03-07T03:01:10;2.60;;;1.00;;
50631;SDS011;49583;45.590;-122.498;2024-03-07T03:03:23;2.90;;;1.20;;
50631;SDS011;49583;45.590;-122.498;2024-03-07T03:05:39;1.50;;;1.10;;
50631;SDS011;49583;45.590;-122.498;2024-03-07T03:07:52;6.50;;;1.10;;
50631;SDS011;49583;45.590;-122.498;2024-03-07T03:10:07;5.80;;;1.10;;
50631;SDS011;49583;45.590;-122.498;2024-03-07T03:12:22;2.40;;;1.00;;
50631;SDS011;49583;45.590;-122.498;2024-03-07T03:14:34;1.70;;;1.40;;
50631;SDS011;49583;45.590;-122.498;2024-03-07T03:16:47;1.90;;;0.90;;
50631;SDS011;49583;45.590;-122.498;2024-03-07T03:19:00;3.70;;;1.30;;
50631;SDS011;49583;45.590;-122.498;2024-03-07T03:21:13;3.00;;;1.40;;
50631;SDS011;49583;45.590;-122.498;2024-03-07T03:23:26;3.40;;;1.30;;
50631;SDS011;49583;45.590;-122.498;2024-03-07T03:25:39;2.10;;;1.40;;
50631;SDS011;49583;45.590;-122.498;2024-03-07T03:27:53;1.70;;;0.90;;
50631;SDS011;49583;45.590;-122.498;2024-03-07T03:30:06;2.50;;;1.20;;
50631;SDS011;49583;45.590;-122.498;2024-03-07T03:32:21;2.40;;;1.20;;
50631;SDS011;49583;45.590;-122.498;2024-03-07T03:34:34;1.60;;;1.10;;
50631;SDS011;49583;45.590;-122.498;2024-03-07T03:36:46;2.70;;;1.00;;
50631;SDS011;49583;45.590;-122.498;2024-03-07T03:39:02;1.50;;;1.40;;
50631;SDS011;49583;45.590;-122.498;2024-03-07T03:41:18;4.10;;;1.30;;
50631;SDS011;49583;45.590;-122.498;2024-03-07T03:43:31;3.00;;;2.10;;
50631;SDS011;49583;45.590;-122.498;2024-03-07T03:45:44;3.30;;;1.90;;
50631;SDS011;49583;45.590;-122.498;2024-03-07T03:47:56;4.00;;;2.10;;
50631;SDS011;49583;45.590;-122.498;2024-03-07T03:50:11;2.20;;;1.70;;
50631;SDS011;49583;45.590;-122.498;2024-03-07T03:52:25;2.50;;;2.10;;
50631;SDS011;49583;45.590;-122.498;2024-03-07T03:54:39;2.00;;;1.70;;
50631;SDS011;49583;45.590;-122.498;2024-03-07T03:56:52;1.50;;;1.20;;
50631;SDS011;49583;45.590;-122.498;2024-03-07T03:59:06;2.60;;;1.20;;
50631;SDS011;49583;45.590;-122.498;2024-03-07T04:01:18;2.10;;;1.30;;
50631;SDS011;49583;45.590;-122.498;2024-03-07T04:03:31;1.30;;;1.20;;
50631;SDS011;49583;45.590;-122.498;2024-03-07T04:05:44;2.80;;;1.20;;
50631;SDS011;49583;45.590;-122.498;2024-03-07T04:07:57;2.30;;;1.30;;
50631;SDS011;49583;45.590;-122.498;2024-03-07T04:10:09;2.30;;;1.50;;
50631;SDS011;49583;45.590;-122.498;2024-03-07T04:12:24;1.40;;;1.20;;
50631;SDS011;49583;45.590;-122.498;2024-03-07T04:14:37;1.60;;;1.30;;
50631;SDS011;49583;45.590;-122.498;2024-03-07T04:16:51;2.80;;;1.30;;
50631;SDS011;49583;45.590;-122.498;2024-03-07T04:19:04;2.30;;;1.50;;
50631;SDS011;49583;45.590;-122.498;2024-03-07T04:21:17;1.80;;;1.50;;
50631;SDS011;49583;45.590;-122.498;2024-03-07T04:23:30;3.40;;;1.20;;
50631;SDS011;49583;45.590;-122.498;2024-03-07T04:25:43;4.10;;;1.40;;
50631;SDS011;49583;45.590;-122.498;2024-03-07T04:27:55;4.60;;;1.60;;
50631;SDS011;49583;45.590;-122.498;2024-03-07T04:30:08;2.60;;;1.70;;
50631;SDS011;49583;45.590;-122.498;2024-03-07T04:32:24;1.90;;;1.50;;
50631;SDS011;49583;45.590;-122.498;2024-03-07T04:34:36;1.90;;;1.60;;
50631;SDS011;49583;45.590;-122.498;2024-03-07T04:36:49;1.30;;;1.20;;
50631;SDS011;49583;45.590;-122.498;2024-03-07T04:39:02;2.80;;;1.90;;
50631;SDS011;49583;45.590;-122.498;2024-03-07T04:41:22;3.70;;;2.10;;
50631;SDS011;49583;45.590;-122.498;2024-03-07T04:43:36;2.40;;;1.90;;
50631;SDS011;49583;45.590;-122.498;2024-03-07T04:45:49;5.20;;;2.30;;
50631;SDS011;49583;45.590;-122.498;2024-03-07T04:48:02;3.00;;;1.80;;
50631;SDS011;49583;45.590;-122.498;2024-03-07T04:50:16;2.60;;;1.90;;
50631;SDS011;49583;45.590;-122.498;2024-03-07T04:52:29;3.50;;;2.40;;
50631;SDS011;49583;45.590;-122.498;2024-03-07T04:54:42;2.90;;;2.10;;
50631;SDS011;49583;45.590;-122.498;2024-03-07T04:56:55;4.80;;;1.70;;
50631;SDS011;49583;45.590;-122.498;2024-03-07T04:59:07;3.80;;;1.60;;
50631;SDS011;49583;45.590;-122.498;2024-03-07T05:01:21;3.00;;;1.80;;
50631;SDS011;49583;45.590;-122.498;2024-03-07T05:03:34;2.90;;;1.80;;
50631;SDS011;49583;45.590;-122.498;2024-03-07T05:05:47;2.50;;;2.00;;
50631;SDS011;49583;45.590;-122.498;2024-03-07T05:08:00;2.60;;;1.90;;
50631;SDS011;49583;45.590;-122.498;2024-03-07T05:10:14;3.10;;;2.20;;
50631;SDS011;49583;45.590;-122.498;2024-03-07T05:12:26;3.00;;;2.00;;
50631;SDS011;49583;45.590;-122.498;2024-03-07T05:14:39;4.60;;;2.20;;
50631;SDS011;49583;45.590;-122.498;2024-03-07T05:16:52;5.60;;;2.00;;
50631;SDS011;49583;45.590;-122.498;2024-03-07T05:19:16;4.30;;;2.00;;
50631;SDS011;49583;45.590;-122.498;2024-03-07T05:21:28;3.00;;;2.20;;
50631;SDS011;49583;45.590;-122.498;2024-03-07T05:23:46;5.30;;;2.00;;
50631;SDS011;49583;45.590;-122.498;2024-03-07T05:25:59;5.30;;;2.30;;
50631;SDS011;49583;45.590;-122.498;2024-03-07T05:28:14;2.80;;;2.10;;
50631;SDS011;49583;45.590;-122.498;2024-03-07T05:30:27;4.40;;;2.30;;
50631;SDS011;49583;45.590;-122.498;2024-03-07T05:32:41;3.60;;;2.50;;
50631;SDS011;49583;45.590;-122.498;2024-03-07T05:34:54;3.70;;;2.40;;
50631;SDS011;49583;45.590;-122.498;2024-03-07T05:37:07;3.60;;;2.20;;
50631;SDS011;49583;45.590;-122.498;2024-03-07T05:39:20;4.50;;;2.60;;
50631;SDS011;49583;45.590;-122.498;2024-03-07T05:41:33;5.40;;;2.40;;
50631;SDS011;49583;45.590;-122.498;2024-03-07T05:43:46;3.40;;;2.40;;
50631;SDS011;49583;45.590;-122.498;2024-03-07T05:45:59;4.00;;;2.70;;
50631;SDS011;49583;45.590;-122.498;2024-03-07T05:48:15;6.10;;;2.90;;
50631;SDS011;49583;45.590;-122.498;2024-03-07T05:50:28;4.60;;;2.60;;
50631;SDS011;49583;45.590;-122.498;2024-03-07T05:52:41;4.30;;;2.40;;
50631;SDS011;49583;45.590;-122.498;2024-03-07T05:54:55;5.90;;;2.50;;
50631;SDS011;49583;45.590;-122.498;2024-03-07T05:57:09;3.40;;;2.90;;
50631;SDS011;49583;45.590;-122.498;2024-03-07T05:59:23;3.00;;;2.60;;
50631;SDS011;49583;45.590;-122.498;2024-03-07T06:01:39;5.40;;;2.90;;
50631;SDS011;49583;45.590;-122.498;2024-03-07T06:03:52;8.10;;;3.30;;
50631;SDS011;49583;45.590;-122.498;2024-03-07T06:06:06;5.00;;;2.50;;
50631;SDS011;49583;45.590;-122.498;2024-03-07T06:08:20;3.60;;;2.50;;
50631;SDS011;49583;45.590;-122.498;2024-03-07T06:10:36;6.80;;;2.70;;
50631;SDS011;49583;45.590;-122.498;2024-03-07T06:12:49;3.40;;;2.70;;
50631;SDS011;49583;45.590;-122.498;2024-03-07T06:15:16;4.30;;;2.70;;
50631;SDS011;49583;45.590;-122.498;2024-03-07T06:17:29;6.70;;;3.30;;
50631;SDS011;49583;45.590;-122.498;2024-03-07T06:19:43;5.10;;;2.90;;
50631;SDS011;49583;45.590;-122.498;2024-03-07T06:21:55;4.80;;;2.70;;
50631;SDS011;49583;45.590;-122.498;2024-03-07T06:24:08;3.40;;;2.70;;
50631;SDS011;49583;45.590;-122.498;2024-03-07T06:26:23;5.10;;;3.40;;
50631;SDS011;49583;45.590;-122.498;2024-03-07T06:28:45;6.10;;;3.20;;
50631;SDS011;49583;45.590;-122.498;2024-03-07T06:30:58;4.80;;;3.20;;
50631;SDS011;49583;45.590;-122.498;2024-03-07T06:33:15;4.90;;;3.40;;
50631;SDS011;49583;45.590;-122.498;2024-03-07T06:35:33;7.30;;;3.80;;
50631;SDS011;49583;45.590;-122.498;2024-03-07T06:37:46;5.00;;;3.50;;
50631;SDS011;49583;45.590;-122.498;2024-03-07T06:39:59;5.10;;;4.20;;
50631;SDS011;49583;45.590;-122.498;2024-03-07T06:42:17;6.60;;;3.90;;
50631;SDS011;49583;45.590;-122.498;2024-03-07T06:44:30;8.40;;;4.30;;
50631;SDS011;49583;45.590;-122.498;2024-03-07T06:46:44;6.20;;;4.40;;
50631;SDS011;49583;45.590;-122.498;2024-03-07T06:48:57;6.50;;;4.10;;
50631;SDS011;49583;45.590;-122.498;2024-03-07T06:51:12;5.20;;;3.90;;
50631;SDS011;49583;45.590;-122.498;2024-03-07T06:53:26;5.20;;;3.70;;
50631;SDS011;49583;45.590;-122.498;2024-03-07T06:55:39;4.50;;;3.20;;
50631;SDS011;49583;45.590;-122.498;2024-03-07T06:57:52;4.70;;;3.80;;
50631;SDS011;49583;45.590;-122.498;2024-03-07T07:00:05;5.00;;;3.40;;
50631;SDS011;49583;45.590;-122.498;2024-03-07T07:02:20;5.60;;;3.60;;
50631;SDS011;49583;45.590;-122.498;2024-03-07T07:04:35;9.00;;;4.30;;
50631;SDS011;49583;45.590;-122.498;2024-03-07T07:06:55;6.70;;;3.30;;
50631;SDS011;49583;45.590;-122.498;2024-03-07T07:09:08;4.30;;;3.50;;
50631;SDS011;49583;45.590;-122.498;2024-03-07T07:11:21;7.20;;;4.10;;
50631;SDS011;49583;45.590;-122.498;2024-03-07T07:13:40;4.80;;;3.60;;
50631;SDS011;49583;45.590;-122.498;2024-03-07T07:15:54;5.30;;;3.40;;
50631;SDS011;49583;45.590;-122.498;2024-03-07T07:18:08;4.40;;;3.90;;
50631;SDS011;49583;45.590;-122.498;2024-03-07T07:20:22;4.10;;;3.10;;
50631;SDS011;49583;45.590;-122.498;2024-03-07T07:22:37;5.10;;;3.30;;
50631;SDS011;49583;45.590;-122.498;2024-03-07T07:24:51;4.90;;;4.10;;
50631;SDS011;49583;45.590;-122.498;2024-03-07T07:27:04;5.00;;;3.30;;
50631;SDS011;49583;45.590;-122.498;2024-03-07T07:29:17;16.40;;;4.20;;
50631;SDS011;49583;45.590;-122.498;2024-03-07T07:31:31;6.70;;;3.00;;
50631;SDS011;49583;45.590;-122.498;2024-03-07T07:33:45;5.90;;;2.90;;
50631;SDS011;49583;45.590;-122.498;2024-03-07T07:35:58;5.90;;;2.60;;
50631;SDS011;49583;45.590;-122.498;2024-03-07T07:38:11;10.40;;;3.50;;
50631;SDS011;49583;45.590;-122.498;2024-03-07T07:40:24;8.30;;;3.30;;
50631;SDS011;49583;45.590;-122.498;2024-03-07T07:42:41;3.70;;;2.50;;
50631;SDS011;49583;45.590;-122.498;2024-03-07T07:44:54;4.10;;;2.70;;
50631;SDS011;49583;45.590;-122.498;2024-03-07T07:47:08;5.00;;;2.60;;
50631;SDS011;49583;45.590;-122.498;2024-03-07T07:49:21;3.50;;;2.70;;
50631;SDS011;49583;45.590;-122.498;2024-03-07T07:51:33;5.80;;;3.10;;
50631;SDS011;49583;45.590;-122.498;2024-03-07T07:53:46;4.40;;;3.10;;
50631;SDS011;49583;45.590;-122.498;2024-03-07T07:55:59;4.70;;;3.20;;
50631;SDS011;49583;45.590;-122.498;2024-03-07T07:58:12;6.60;;;2.90;;
50631;SDS011;49583;45.590;-122.498;2024-03-07T08:00:26;3.80;;;2.70;;
50631;SDS011;49583;45.590;-122.498;2024-03-07T08:02:41;4.00;;;2.80;;
50631;SDS011;49583;45.590;-122.498;2024-03-07T08:04:55;7.90;;;3.00;;
50631;SDS011;49583;45.590;-122.498;2024-03-07T08:07:11;4.40;;;2.90;;
50631;SDS011;49583;45.590;-122.498;2024-03-07T08:09:24;5.50;;;3.50;;
50631;SDS011;49583;45.590;-122.498;2024-03-07T08:11:37;7.70;;;3.00;;
50631;SDS011;49583;45.590;-122.498;2024-03-07T08:13:50;4.70;;;3.50;;
50631;SDS011;49583;45.590;-122.498;2024-03-07T08:16:04;6.60;;;3.60;;
50631;SDS011;49583;45.590;-122.498;2024-03-07T08:18:20;5.90;;;3.10;;
50631;SDS011;49583;45.590;-122.498;2024-03-07T08:20:35;9.10;;;3.30;;
50631;SDS011;49583;45.590;-122.498;2024-03-07T08:22:51;6.10;;;3.70;;
50631;SDS011;49583;45.590;-122.498;2024-03-07T08:25:05;7.40;;;3.20;;
50631;SDS011;49583;45.590;-122.498;2024-03-07T08:27:20;3.80;;;3.00;;
50631;SDS011;49583;45.590;-122.498;2024-03-07T08:29:33;6.00;;;3.00;;
50631;SDS011;49583;45.590;-122.498;2024-03-07T08:31:46;5.90;;;3.20;;
50631;SDS011;49583;45.590;-122.498;2024-03-07T08:34:00;7.00;;;2.70;;
50631;SDS011;49583;45.590;-122.498;2024-03-07T08:36:14;4.40;;;2.50;;
50631;SDS011;49583;45.590;-122.498;2024-03-07T08:38:28;4.90;;;3.00;;
50631;SDS011;49583;45.590;-122.498;2024-03-07T08:40:45;8.80;;;3.60;;
50631;SDS011;49583;45.590;-122.498;2024-03-07T08:42:58;3.50;;;3.10;;
50631;SDS011;49583;45.590;-122.498;2024-03-07T08:45:15;5.70;;;3.00;;
50631;SDS011;49583;45.590;-122.498;2024-03-07T08:47:29;6.80;;;3.50;;
50631;SDS011;49583;45.590;-122.498;2024-03-07T08:49:42;5.50;;;3.80;;
50631;SDS011;49583;45.590;-122.498;2024-03-07T08:51:56;5.30;;;3.00;;
50631;SDS011;49583;45.590;-122.498;2024-03-07T08:54:09;4.90;;;2.90;;
50631;SDS011;49583;45.590;-122.498;2024-03-07T08:56:22;5.60;;;3.70;;
50631;SDS011;49583;45.590;-122.498;2024-03-07T08:58:36;9.40;;;3.30;;
50631;SDS011;49583;45.590;-122.498;2024-03-07T09:00:51;6.50;;;3.30;;
50631;SDS011;49583;45.590;-122.498;2024-03-07T09:03:04;4.10;;;3.00;;
50631;SDS011;49583;45.590;-122.498;2024-03-07T09:05:20;5.50;;;3.90;;
50631;SDS011;49583;45.590;-122.498;2024-03-07T09:07:34;5.60;;;3.80;;
50631;SDS011;49583;45.590;-122.498;2024-03-07T09:09:47;6.10;;;3.40;;
50631;SDS011;49583;45.590;-122.498;2024-03-07T09:12:00;4.90;;;4.20;;
50631;SDS011;49583;45.590;-122.498;2024-03-07T09:14:14;5.70;;;3.70;;
50631;SDS011;49583;45.590;-122.498;2024-03-07T09:16:28;7.20;;;4.30;;
50631;SDS011;49583;45.590;-122.498;2024-03-07T09:18:42;5.60;;;3.50;;
50631;SDS011;49583;45.590;-122.498;2024-03-07T09:20:55;4.50;;;3.70;;
50631;SDS011;49583;45.590;-122.498;2024-03-07T09:23:09;5.80;;;4.30;;
50631;SDS011;49583;45.590;-122.498;2024-03-07T09:25:22;6.30;;;4.00;;
50631;SDS011;49583;45.590;-122.498;2024-03-07T09:27:35;6.40;;;3.40;;
50631;SDS011;49583;45.590;-122.498;2024-03-07T09:29:49;7.20;;;4.00;;
50631;SDS011;49583;45.590;-122.498;2024-03-07T09:32:02;4.60;;;3.70;;
50631;SDS011;49583;45.590;-122.498;2024-03-07T09:34:17;5.40;;;3.80;;
50631;SDS011;49583;45.590;-122.498;2024-03-07T09:36:30;5.80;;;3.90;;
50631;SDS011;49583;45.590;-122.498;2024-03-07T09:38:44;5.20;;;3.90;;
50631;SDS011;49583;45.590;-122.498;2024-03-07T09:40:57;6.20;;;4.00;;
50631;SDS011;49583;45.590;-122.498;2024-03-07T09:43:10;6.40;;;3.60;;
50631;SDS011;49583;45.590;-122.498;2024-03-07T09:45:30;6.20;;;3.40;;
50631;SDS011;49583;45.590;-122.498;2024-03-07T09:47:45;5.10;;;3.30;;
50631;SDS011;49583;45.590;-122.498;2024-03-07T09:50:00;6.10;;;3.40;;
50631;SDS011;49583;45.590;-122.498;2024-03-07T09:52:16;7.40;;;3.60;;
50631;SDS011;49583;45.590;-122.498;2024-03-07T09:54:29;6.10;;;3.10;;
50631;SDS011;49583;45.590;-122.498;2024-03-07T09:56:42;9.40;;;4.20;;
50631;SDS011;49583;45.590;-122.498;2024-03-07T09:58:57;6.40;;;3.60;;
50631;SDS011;49583;45.590;-122.498;2024-03-07T10:01:11;5.60;;;3.40;;
50631;SDS011;49583;45.590;-122.498;2024-03-07T10:03:24;5.00;;;3.50;;
50631;SDS011;49583;45.590;-122.498;2024-03-07T10:05:38;4.10;;;2.90;;
50631;SDS011;49583;45.590;-122.498;2024-03-07T10:07:51;4.20;;;3.20;;
50631;SDS011;49583;45.590;-122.498;2024-03-07T10:10:04;5.00;;;3.20;;
50631;SDS011;49583;45.590;-122.498;2024-03-07T10:12:19;6.70;;;3.10;;
50631;SDS011;49583;45.590;-122.498;2024-03-07T10:14:34;7.20;;;3.30;;
50631;SDS011;49583;45.590;-122.498;2024-03-07T10:16:47;4.20;;;3.00;;
50631;SDS011;49583;45.590;-122.498;2024-03-07T10:19:00;5.30;;;2.90;;
50631;SDS011;49583;45.590;-122.498;2024-03-07T10:21:18;8.00;;;3.80;;
50631;SDS011;49583;45.590;-122.498;2024-03-07T10:23:32;5.50;;;3.30;;
50631;SDS011;49583;45.590;-122.498;2024-03-07T10:25:46;5.80;;;3.40;;
50631;SDS011;49583;45.590;-122.498;2024-03-07T10:28:01;3.90;;;3.40;;
50631;SDS011;49583;45.590;-122.498;2024-03-07T10:30:16;4.90;;;3.30;;
50631;SDS011;49583;45.590;-122.498;2024-03-07T10:32:31;3.50;;;3.10;;
50631;SDS011;49583;45.590;-122.498;2024-03-07T10:34:44;5.40;;;3.60;;
50631;SDS011;49583;45.590;-122.498;2024-03-07T10:36:58;3.90;;;3.50;;
50631;SDS011;49583;45.590;-122.498;2024-03-07T10:39:11;4.70;;;3.80;;
50631;SDS011;49583;45.590;-122.498;2024-03-07T10:41:25;4.70;;;3.30;;
50631;SDS011;49583;45.590;-122.498;2024-03-07T10:43:45;4.60;;;3.70;;
50631;SDS011;49583;45.590;-122.498;2024-03-07T10:46:05;4.90;;;3.50;;
50631;SDS011;49583;45.590;-122.498;2024-03-07T10:48:20;6.40;;;3.80;;
50631;SDS011;49583;45.590;-122.498;2024-03-07T10:50:41;4.90;;;3.40;;
50631;SDS011;49583;45.590;-122.498;2024-03-07T10:53:04;5.50;;;3.20;;
50631;SDS011;49583;45.590;-122.498;2024-03-07T10:55:28;5.90;;;3.50;;
50631;SDS011;49583;45.590;-122.498;2024-03-07T10:57:56;5.70;;;3.30;;
50631;SDS011;49583;45.590;-122.498;2024-03-07T11:00:19;4.40;;;3.30;;
50631;SDS011;49583;45.590;-122.498;2024-03-07T11:02:45;3.60;;;3.00;;
50631;SDS011;49583;45.590;-122.498;2024-03-07T11:05:03;4.00;;;3.20;;
50631;SDS011;49583;45.590;-122.498;2024-03-07T11:07:20;4.30;;;2.90;;
50631;SDS011;49583;45.590;-122.498;2024-03-07T11:09:34;7.10;;;3.50;;
50631;SDS011;49583;45.590;-122.498;2024-03-07T11:11:50;4.30;;;3.30;;
50631;SDS011;49583;45.590;-122.498;2024-03-07T11:14:03;8.30;;;3.60;;
50631;SDS011;49583;45.590;-122.498;2024-03-07T11:16:18;10.30;;;3.90;;
50631;SDS011;49583;45.590;-122.498;2024-03-07T11:18:32;15.50;;;3.80;;
50631;SDS011;49583;45.590;-122.498;2024-03-07T11:20:45;4.10;;;2.70;;
50631;SDS011;49583;45.590;-122.498;2024-03-07T11:22:58;4.00;;;3.30;;
50631;SDS011;49583;45.590;-122.498;2024-03-07T11:25:12;3.50;;;3.20;;
50631;SDS011;49583;45.590;-122.498;2024-03-07T11:27:27;6.30;;;3.70;;
50631;SDS011;49583;45.590;-122.498;2024-03-07T11:29:44;5.00;;;2.80;;
50631;SDS011;49583;45.590;-122.498;2024-03-07T11:32:01;8.70;;;3.90;;
50631;SDS011;49583;45.590;-122.498;2024-03-07T11:34:16;6.70;;;3.20;;
50631;SDS011;49583;45.590;-122.498;2024-03-07T11:38:57;7.60;;;3.80;;
50631;SDS011;49583;45.590;-122.498;2024-03-07T11:41:14;5.00;;;3.20;;
50631;SDS011;49583;45.590;-122.498;2024-03-07T11:43:29;4.90;;;3.60;;
50631;SDS011;49583;45.590;-122.498;2024-03-07T11:48:41;5.20;;;3.40;;
50631;SDS011;49583;45.590;-122.498;2024-03-07T11:50:55;4.90;;;3.70;;
50631;SDS011;49583;45.590;-122.498;2024-03-07T11:53:09;4.60;;;3.30;;
50631;SDS011;49583;45.590;-122.498;2024-03-07T11:55:21;6.10;;;3.20;;
50631;SDS011;49583;45.590;-122.498;2024-03-07T11:57:36;4.70;;;3.40;;
50631;SDS011;49583;45.590;-122.498;2024-03-07T11:59:52;4.20;;;3.50;;
50631;SDS011;49583;45.590;-122.498;2024-03-07T12:02:06;4.90;;;3.50;;
50631;SDS011;49583;45.590;-122.498;2024-03-07T12:04:19;9.10;;;3.90;;
50631;SDS011;49583;45.590;-122.498;2024-03-07T12:06:32;5.20;;;3.60;;
50631;SDS011;49583;45.590;-122.498;2024-03-07T12:08:45;6.90;;;4.00;;
50631;SDS011;49583;45.590;-122.498;2024-03-07T12:11:00;5.80;;;3.40;;
50631;SDS011;49583;45.590;-122.498;2024-03-07T12:13:13;5.30;;;3.40;;
50631;SDS011;49583;45.590;-122.498;2024-03-07T12:15:28;6.00;;;3.50;;
50631;SDS011;49583;45.590;-122.498;2024-03-07T12:17:40;4.20;;;3.50;;
50631;SDS011;49583;45.590;-122.498;2024-03-07T12:19:54;6.90;;;3.70;;
50631;SDS011;49583;45.590;-122.498;2024-03-07T12:22:11;6.80;;;3.70;;
50631;SDS011;49583;45.590;-122.498;2024-03-07T12:24:34;7.00;;;2.80;;
50631;SDS011;49583;45.590;-122.498;2024-03-07T12:26:47;6.70;;;3.50;;
50631;SDS011;49583;45.590;-122.498;2024-03-07T12:29:08;3.50;;;2.60;;
50631;SDS011;49583;45.590;-122.498;2024-03-07T12:31:22;6.00;;;3.40;;
50631;SDS011;49583;45.590;-122.498;2024-03-07T12:33:35;5.50;;;3.60;;
50631;SDS011;49583;45.590;-122.498;2024-03-07T12:35:50;5.20;;;3.80;;
50631;SDS011;49583;45.590;-122.498;2024-03-07T12:38:08;6.20;;;3.10;;
50631;SDS011;49583;45.590;-122.498;2024-03-07T12:40:23;5.30;;;3.50;;
50631;SDS011;49583;45.590;-122.498;2024-03-07T12:42:41;4.00;;;3.30;;
50631;SDS011;49583;45.590;-122.498;2024-03-07T12:44:54;6.50;;;3.70;;
50631;SDS011;49583;45.590;-122.498;2024-03-07T12:47:08;7.80;;;3.70;;
50631;SDS011;49583;45.590;-122.498;2024-03-07T12:49:22;8.60;;;4.00;;
50631;SDS011;49583;45.590;-122.498;2024-03-07T12:51:35;5.70;;;3.80;;
50631;SDS011;49583;45.590;-122.498;2024-03-07T12:53:49;7.40;;;3.60;;
50631;SDS011;49583;45.590;-122.498;2024-03-07T12:56:02;6.00;;;3.50;;
50631;SDS011;49583;45.590;-122.498;2024-03-07T12:58:16;6.90;;;3.60;;